Time;durP1;ratioP1;P1;durP2;ratioP2;P2;SDS_P1;SDS_P2;PMS_P1;PMS_P2;Temp;Humidity;BMP_temperature;BMP_pressure;BME280_temperature;BME280_humidity;BME280_pressure;Samples;Min_cycle;Max_cycle;Signal;HPM_P1;HPM_P2
2024/03/19 00:02:03;;;;;;;13.93;9.47;;;;;;;2.05;86.53;100840.94;5059129;28;20229;-67
2024/03/19 00:04:30;;;;;;;15.90;9.73;;;;;;;2.05;86.75;100845.16;5060585;28;20236;-67
2024/03/19 00:06:58;;;;;;;12.57;8.77;;;;;;;2.04;85.94;100843.44;5059643;28;20221;-65
2024/03/19 00:09:25;;;;;;;16.10;9.13;;;;;;;2.04;86.45;100851.06;5057558;28;20612;-66
2024/03/19 00:11:52;;;;;;;16.13;10.17;;;;;;;2.02;86.43;100845.03;5058518;28;20221;-66
2024/03/19 00:14:19;;;;;;;15.53;9.20;;;;;;;1.99;86.81;100843.28;5061276;28;20284;-66
2024/03/19 00:16:46;;;;;;;13.23;8.93;;;;;;;2.00;86.43;100841.59;5061140;28;20259;-66
2024/03/19 00:19:13;;;;;;;14.87;8.97;;;;;;;1.98;85.98;100838.13;5059793;28;20209;-66
2024/03/19 00:21:41;;;;;;;14.87;9.37;;;;;;;1.97;86.29;100841.47;5061590;28;20746;-67
2024/03/19 00:24:09;;;;;;;16.97;9.37;;;;;;;1.93;86.25;100851.53;5059851;28;20209;-66
2024/03/19 00:26:37;;;;;;;16.97;9.47;;;;;;;1.91;86.10;100853.16;5059972;28;20660;-66
2024/03/19 00:29:07;;;;;;;17.17;9.23;;;;;;;1.88;86.59;100839.50;5056183;28;20213;-67
2024/03/19 00:31:34;;;;;;;13.63;8.63;;;;;;;1.86;86.84;100848.72;5058075;28;22425;-66
2024/03/19 00:34:01;;;;;;;11.93;8.30;;;;;;;1.83;86.79;100846.91;5059280;28;20660;-67
2024/03/19 00:36:28;;;;;;;12.17;8.50;;;;;;;1.85;86.60;100847.00;5060908;28;20213;-66
2024/03/19 00:38:55;;;;;;;12.67;8.53;;;;;;;1.83;86.90;100848.59;5059789;28;20220;-66
2024/03/19 00:41:24;;;;;;;13.43;8.90;;;;;;;1.82;86.43;100845.19;5061897;28;20236;-69
2024/03/19 00:43:51;;;;;;;13.47;8.27;;;;;;;1.83;86.39;100839.28;5060043;28;20218;-67
2024/03/19 00:46:19;;;;;;;14.53;8.93;;;;;;;1.83;86.23;100835.91;5056029;28;20691;-66
2024/03/19 00:48:45;;;;;;;13.13;8.87;;;;;;;1.82;86.17;100837.56;5054982;28;20218;-66
2024/03/19 00:51:12;;;;;;;14.13;8.90;;;;;;;1.83;86.26;100846.91;5058058;28;20214;-67
2024/03/19 00:53:39;;;;;;;14.17;8.60;;;;;;;1.82;85.86;100842.66;5060791;28;20205;-65
2024/03/19 00:56:07;;;;;;;15.93;9.33;;;;;;;1.83;85.66;100841.84;5060381;28;20237;-66
2024/03/19 00:58:35;;;;;;;13.40;8.13;;;;;;;1.83;86.31;100851.13;5059822;28;20660;-66
2024/03/19 01:01:03;;;;;;;13.37;8.97;;;;;;;1.80;86.19;100841.72;5058903;28;20239;-67
2024/03/19 01:03:30;;;;;;;14.37;9.83;;;;;;;1.78;86.02;100845.03;5058477;28;20233;-67
2024/03/19 01:05:57;;;;;;;14.97;8.83;;;;;;;1.75;85.79;100845.78;5060425;28;20212;-65
2024/03/19 01:08:24;;;;;;;14.57;9.73;;;;;;;1.73;86.35;100855.03;5058497;28;20213;-65
2024/03/19 01:10:51;;;;;;;13.83;8.57;;;;;;;1.74;85.18;100853.34;5060607;28;20213;-64
2024/03/19 01:13:17;;;;;;;14.50;8.80;;;;;;;1.70;85.76;100854.91;5056776;28;20201;-64
2024/03/19 01:15:47;;;;;;;12.40;7.53;;;;;;;1.72;85.58;100855.81;5060099;28;20202;-65
2024/03/19 01:18:14;;;;;;;15.03;8.67;;;;;;;1.71;85.17;100865.94;5057564;28;20205;-66
2024/03/19 01:20:41;;;;;;;12.03;7.87;;;;;;;1.65;85.60;100854.72;5060007;28;20205;-68
2024/03/19 01:23:08;;;;;;;13.97;9.23;;;;;;;1.64;85.36;100858.09;5061179;28;21174;-69
2024/03/19 01:25:36;;;;;;;12.23;9.07;;;;;;;1.64;85.07;100863.16;5053471;28;20247;-66
2024/03/19 01:28:03;;;;;;;14.97;9.53;;;;;;;1.65;85.49;100864.88;5055089;28;20267;-68
2024/03/19 01:30:30;;;;;;;12.33;8.77;;;;;;;1.66;84.71;100859.03;5058977;28;20201;-66
2024/03/19 01:32:58;;;;;;;15.00;9.10;;;;;;;1.66;85.79;100856.47;5059600;28;20209;-69
2024/03/19 01:35:25;;;;;;;13.73;8.77;;;;;;;1.68;85.48;100859.06;5061977;28;20205;-66
2024/03/19 01:37:52;;;;;;;13.97;9.53;;;;;;;1.69;85.70;100853.16;5058289;28;20213;-68
2024/03/19 01:40:19;;;;;;;15.43;8.90;;;;;;;1.69;85.03;100851.50;5059289;28;20258;-66
2024/03/19 01:42:45;;;;;;;12.17;8.17;;;;;;;1.70;85.21;100854.91;5054455;28;20237;-68
2024/03/19 01:45:15;;;;;;;14.17;9.63;;;;;;;1.74;84.86;100853.34;5055906;28;20627;-66
2024/03/19 01:47:42;;;;;;;15.27;9.30;;;;;;;1.73;84.39;100854.16;5058997;28;20217;-67
2024/03/19 01:50:11;;;;;;;12.83;8.47;;;;;;;1.66;84.72;100855.63;5060359;28;20632;-66
2024/03/19 01:52:42;;;;;;;15.03;9.93;;;;;;;1.66;85.26;100855.63;5057512;28;20209;-65
2024/03/19 01:55:11;;;;;;;12.60;8.60;;;;;;;1.72;85.36;100868.53;5058981;28;20221;-67
2024/03/19 01:57:39;;;;;;;14.27;7.90;;;;;;;1.73;85.29;100866.84;5053772;28;20637;-68
2024/03/19 02:00:07;;;;;;;13.97;8.77;;;;;;;1.78;84.66;100868.75;5058253;28;20236;-67
2024/03/19 02:02:35;;;;;;;14.13;8.77;;;;;;;1.78;84.74;100866.22;5056840;28;20228;-66
2024/03/19 02:05:04;;;;;;;15.53;9.00;;;;;;;1.76;83.80;100867.81;5054225;28;20209;-67
2024/03/19 02:07:33;;;;;;;13.53;8.77;;;;;;;1.77;83.78;100868.69;5058156;28;20613;-66
2024/03/19 02:10:01;;;;;;;13.27;8.47;;;;;;;1.78;84.11;100876.38;5059800;28;20201;-67
2024/03/19 02:12:29;;;;;;;15.30;9.00;;;;;;;1.78;84.01;100872.97;5054882;28;20279;-69
2024/03/19 02:14:56;;;;;;;14.17;8.73;;;;;;;1.81;83.72;100881.59;5054239;28;20210;-67
2024/03/19 02:17:24;;;;;;;15.53;9.20;;;;;;;1.81;83.38;100873.09;5060931;28;20601;-67
2024/03/19 02:19:51;;;;;;;13.47;8.57;;;;;;;1.79;82.37;100877.25;5062656;28;20205;-68
2024/03/19 02:22:19;;;;;;;15.17;8.27;;;;;;;1.76;82.23;100875.44;5064349;28;20233;-66
2024/03/19 02:24:47;;;;;;;12.73;8.57;;;;;;;1.75;83.21;100886.44;5060162;28;20213;-66
2024/03/19 02:27:14;;;;;;;13.60;8.83;;;;;;;1.78;83.61;100889.09;5056697;28;20201;-67
2024/03/19 02:29:43;;;;;;;12.00;7.27;;;;;;;1.80;83.36;100887.44;5056209;28;20216;-67
2024/03/19 02:32:10;;;;;;;12.93;8.33;;;;;;;1.82;83.76;100885.00;5061937;28;20611;-68
2024/03/19 02:34:37;;;;;;;15.67;8.93;;;;;;;1.86;83.23;100895.31;5064048;28;20267;-68
2024/03/19 02:37:04;;;;;;;11.00;7.73;;;;;;;1.88;83.74;100893.72;5062940;28;20217;-66
2024/03/19 02:39:31;;;;;;;13.87;8.17;;;;;;;1.85;83.48;100893.59;5059468;28;20209;-66
2024/03/19 02:42:00;;;;;;;12.97;8.17;;;;;;;1.83;82.85;100889.25;5060414;28;20209;-67
2024/03/19 02:44:27;;;;;;;12.20;8.10;;;;;;;1.79;82.91;100895.03;5060409;28;20209;-69
2024/03/19 02:46:53;;;;;;;12.07;8.23;;;;;;;1.75;82.35;100893.19;5060897;28;20209;-67
2024/03/19 02:49:20;;;;;;;11.77;7.23;;;;;;;1.71;81.98;100897.28;5061513;28;20213;-67
2024/03/19 02:51:46;;;;;;;13.00;7.97;;;;;;;1.66;82.85;100898.78;5063173;28;20213;-67
2024/03/19 02:54:13;;;;;;;13.03;7.80;;;;;;;1.60;83.12;100893.47;5062880;28;20205;-68
2024/03/19 02:56:40;;;;;;;15.93;8.03;;;;;;;1.59;82.22;100894.28;5060616;28;20237;-66
2024/03/19 02:59:08;;;;;;;13.83;7.97;;;;;;;1.56;82.99;100896.72;5065371;28;20200;-66
2024/03/19 03:01:35;;;;;;;11.43;7.50;;;;;;;1.55;83.54;100897.53;5068192;28;20204;-66
2024/03/19 03:04:02;;;;;;;13.57;8.20;;;;;;;1.55;83.60;100895.84;5069497;28;20229;-67
2024/03/19 03:06:30;;;;;;;10.57;7.70;;;;;;;1.55;83.52;100902.59;5072510;28;20209;-66
2024/03/19 03:08:58;;;;;;;13.27;8.23;;;;;;;1.53;83.68;100904.19;5072572;28;20200;-66
2024/03/19 03:11:25;;;;;;;14.63;8.97;;;;;;;1.52;83.09;100908.41;5068239;28;20224;-66
2024/03/19 03:13:52;;;;;;;11.00;7.40;;;;;;;1.48;83.74;100911.66;5068804;28;20681;-66
2024/03/19 03:16:21;;;;;;;12.47;8.17;;;;;;;1.46;83.95;100910.72;5070514;28;20568;-67
2024/03/19 03:18:48;;;;;;;14.13;8.03;;;;;;;1.43;83.61;100913.97;5069268;28;20213;-67
2024/03/19 03:21:16;;;;;;;10.93;7.87;;;;;;;1.44;84.00;100919.97;5067314;28;20627;-68
2024/03/19 03:23:43;;;;;;;11.93;8.03;;;;;;;1.42;83.61;100916.47;5070202;28;20240;-67
2024/03/19 03:26:11;;;;;;;13.53;8.03;;;;;;;1.38;83.54;100909.56;5069144;28;20258;-67
2024/03/19 03:28:38;;;;;;;12.03;7.97;;;;;;;1.37;83.24;100921.38;5068280;28;20211;-66
2024/03/19 03:31:05;;;;;;;10.23;7.43;;;;;;;1.34;83.16;100923.78;5066392;28;20626;-66
2024/03/19 03:33:33;;;;;;;11.30;8.23;;;;;;;1.33;82.79;100928.81;5066649;28;20779;-67
2024/03/19 03:36:00;;;;;;;10.67;7.70;;;;;;;1.31;82.69;100926.22;5068129;28;20212;-67
2024/03/19 03:38:27;;;;;;;13.40;7.87;;;;;;;1.31;82.94;100938.03;5071116;28;20675;-66
2024/03/19 03:40:54;;;;;;;12.27;7.40;;;;;;;1.31;83.77;100935.50;5068868;28;20225;-67
2024/03/19 03:43:21;;;;;;;11.20;7.23;;;;;;;1.29;83.98;100935.44;5071150;28;20224;-66
2024/03/19 03:45:49;;;;;;;9.47;6.30;;;;;;;1.31;83.47;100938.91;5070118;28;20201;-67
2024/03/19 03:48:16;;;;;;;10.47;6.93;;;;;;;1.29;83.65;100940.53;5063661;28;20225;-67
2024/03/19 03:50:44;;;;;;;12.57;7.30;;;;;;;1.28;83.29;100948.94;5071436;28;20573;-70
2024/03/19 03:53:12;;;;;;;11.73;7.70;;;;;;;1.22;83.38;100936.00;5068598;28;20209;-65
2024/03/19 03:55:38;;;;;;;13.23;7.37;;;;;;;1.24;83.74;100946.22;5069312;28;20209;-65
2024/03/19 03:58:05;;;;;;;12.20;7.83;;;;;;;1.20;82.95;100941.00;5061434;28;20220;-68
2024/03/19 04:00:34;;;;;;;11.17;6.97;;;;;;;1.21;83.27;100946.94;5058998;28;20213;-66
2024/03/19 04:03:01;;;;;;;9.93;6.90;;;;;;;1.22;82.73;100948.69;5057642;28;20229;-66
2024/03/19 04:05:28;;;;;;;10.20;6.67;;;;;;;1.23;83.16;100949.56;5061296;28;20209;-65
2024/03/19 04:07:56;;;;;;;11.50;7.27;;;;;;;1.23;83.82;100937.72;5057663;28;20209;-66
2024/03/19 04:10:23;;;;;;;13.87;6.83;;;;;;;1.24;83.08;100942.00;5062896;28;20667;-66
2024/03/19 04:12:50;;;;;;;9.70;7.13;;;;;;;1.22;82.13;100942.75;5061465;28;20217;-66
2024/03/19 04:15:17;;;;;;;12.63;7.07;;;;;;;1.14;82.27;100944.97;5060161;28;20260;-66
2024/03/19 04:17:44;;;;;;;12.80;7.40;;;;;;;1.05;82.86;100944.59;5055249;28;20217;-66
2024/03/19 04:20:11;;;;;;;9.77;6.93;;;;;;;1.02;82.67;100952.06;5060372;28;20201;-66
2024/03/19 04:22:38;;;;;;;11.67;7.80;;;;;;;0.94;83.16;100942.47;5058868;28;20233;-66
2024/03/19 04:25:08;;;;;;;12.53;7.70;;;;;;;0.90;83.07;100945.69;5058591;28;20205;-66
2024/03/19 04:27:36;;;;;;;10.67;7.03;;;;;;;0.85;83.75;100947.19;5063277;28;20217;-66
2024/03/19 04:30:03;;;;;;;11.07;6.83;;;;;;;0.83;84.05;100951.31;5055879;28;20205;-66
2024/03/19 04:32:30;;;;;;;11.23;7.07;;;;;;;0.85;84.24;100949.72;5058667;28;20212;-67
2024/03/19 04:34:57;;;;;;;12.77;6.83;;;;;;;0.84;84.08;100952.16;5059622;28;20205;-67
2024/03/19 04:37:25;;;;;;;10.00;6.63;;;;;;;0.83;84.04;100956.38;5059548;28;20213;-66
2024/03/19 04:39:52;;;;;;;9.03;6.73;;;;;;;0.84;84.12;100962.31;5058384;28;20213;-66
2024/03/19 04:42:20;;;;;;;12.83;7.47;;;;;;;0.81;84.32;100964.72;5058588;28;20206;-67
2024/03/19 04:44:47;;;;;;;10.23;6.47;;;;;;;0.81;84.67;100963.09;5058155;28;20235;-67
2024/03/19 04:47:17;;;;;;;12.57;7.23;;;;;;;0.83;84.43;100969.06;5057066;28;20205;-69
2024/03/19 04:49:44;;;;;;;10.17;6.73;;;;;;;0.83;84.80;100970.75;5060501;28;20209;-66
2024/03/19 04:52:11;;;;;;;10.03;6.37;;;;;;;0.85;85.03;100972.56;5056016;28;20212;-66
2024/03/19 04:54:38;;;;;;;9.67;6.50;;;;;;;0.88;85.13;100972.66;5058522;28;20276;-67
2024/03/19 04:57:05;;;;;;;10.73;6.63;;;;;;;0.93;85.97;100973.75;5066238;28;20248;-67
2024/03/19 04:59:33;;;;;;;10.40;6.73;;;;;;;0.98;85.06;100978.13;5063602;28;20227;-67
2024/03/19 05:02:00;;;;;;;9.30;6.43;;;;;;;1.04;85.67;100978.41;5065026;28;20220;-68
2024/03/19 05:04:28;;;;;;;8.73;6.40;;;;;;;1.11;85.12;100982.94;5064170;28;20229;-69
2024/03/19 05:06:55;;;;;;;11.17;7.33;;;;;;;1.16;85.09;100986.50;5065622;28;20570;-68
2024/03/19 05:09:21;;;;;;;9.87;6.53;;;;;;;1.14;84.14;100986.47;5069265;28;20205;-68
2024/03/19 05:11:48;;;;;;;10.20;6.63;;;;;;;1.12;84.83;100984.66;5068584;28;20209;-67
2024/03/19 05:14:16;;;;;;;9.50;6.63;;;;;;;1.14;84.43;100994.06;5064123;28;20205;-68
2024/03/19 05:16:44;;;;;;;10.27;6.77;;;;;;;1.12;84.18;100980.44;5065395;28;20283;-68
2024/03/19 05:19:11;;;;;;;11.07;6.87;;;;;;;1.10;84.58;100984.56;5064031;28;20596;-67
2024/03/19 05:21:38;;;;;;;13.53;7.50;;;;;;;1.12;84.40;100985.53;5064349;28;20220;-68
2024/03/19 05:24:06;;;;;;;10.23;6.70;;;;;;;1.12;84.65;100988.06;5070255;28;20232;-71
2024/03/19 05:26:33;;;;;;;10.67;7.50;;;;;;;1.10;84.83;100988.78;5062742;28;20227;-63
2024/03/19 05:29:00;;;;;;;11.87;7.67;;;;;;;1.10;85.15;100989.66;5069220;28;20247;-63
2024/03/19 05:31:29;;;;;;;10.73;7.27;;;;;;;1.13;85.11;100986.38;5067872;28;20216;-66
2024/03/19 05:33:58;;;;;;;12.70;8.23;;;;;;;1.15;84.80;100992.41;5070183;28;20659;-66
2024/03/19 05:36:25;;;;;;;9.73;6.83;;;;;;;1.15;85.50;100985.66;5067817;28;20209;-72
2024/03/19 05:38:53;;;;;;;13.03;7.30;;;;;;;1.14;84.64;100995.72;5064571;28;20212;-68
2024/03/19 05:41:20;;;;;;;13.07;8.13;;;;;;;1.17;85.09;101000.94;5069021;28;20204;-67
2024/03/19 05:43:49;;;;;;;12.33;7.60;;;;;;;1.17;85.07;100996.72;5068013;28;20233;-70
2024/03/19 05:46:16;;;;;;;10.47;7.13;;;;;;;1.18;85.25;100993.41;5065682;28;20566;-68
2024/03/19 05:48:44;;;;;;;10.23;6.73;;;;;;;1.15;85.29;101002.56;5064989;28;20549;-70
2024/03/19 05:51:12;;;;;;;10.83;7.20;;;;;;;1.18;86.30;100997.63;5067312;28;20216;-69
2024/03/19 05:53:40;;;;;;;11.33;7.27;;;;;;;1.18;85.61;101002.69;5072478;28;20574;-71
2024/03/19 05:56:09;;;;;;;8.67;6.83;;;;;;;1.20;86.45;101006.13;5064973;28;20322;-68
2024/03/19 05:58:36;;;;;;;11.30;6.93;;;;;;;1.22;85.78;100998.59;5066819;28;20201;-67
2024/03/19 06:01:04;;;;;;;11.00;7.70;;;;;;;1.27;86.11;101004.72;5063426;28;20220;-66
2024/03/19 06:03:33;;;;;;;11.27;7.27;;;;;;;1.34;86.24;100999.09;5069574;28;20224;-68
2024/03/19 06:06:03;;;;;;;10.63;7.73;;;;;;;1.40;86.07;101005.31;5071471;28;20581;-69
2024/03/19 06:08:31;;;;;;;12.57;8.10;;;;;;;1.50;86.61;101005.66;5068963;28;20225;-68
2024/03/19 06:10:58;;;;;;;10.80;7.63;;;;;;;1.56;86.29;101001.69;5069403;28;20209;-69
2024/03/19 06:13:26;;;;;;;10.97;7.73;;;;;;;1.63;86.34;101000.28;5070923;28;20212;-70
2024/03/19 06:15:53;;;;;;;11.73;7.33;;;;;;;1.74;86.50;101005.78;5063850;28;20282;-68
2024/03/19 06:18:21;;;;;;;10.37;7.37;;;;;;;1.78;86.07;101005.09;5064722;28;20262;-70
2024/03/19 06:20:48;;;;;;;11.03;7.10;;;;;;;1.78;84.45;101003.41;5054278;28;20771;-61
2024/03/19 06:23:16;;;;;;;10.30;7.67;;;;;;;1.74;84.69;101006.66;5058837;28;20212;-68
2024/03/19 06:25:44;;;;;;;9.30;7.20;;;;;;;1.77;85.67;101005.88;5061944;28;20670;-67
2024/03/19 06:28:11;;;;;;;10.80;8.23;;;;;;;1.83;85.62;101017.16;5062921;28;20548;-68
2024/03/19 06:30:38;;;;;;;10.50;7.50;;;;;;;1.89;85.28;101014.88;5058571;28;20222;-65
2024/03/19 06:33:06;;;;;;;12.23;8.40;;;;;;;1.98;85.25;101016.03;5053492;28;20197;-69
2024/03/19 06:35:33;;;;;;;12.30;8.20;;;;;;;2.02;84.83;101013.66;5054339;28;20217;-67
2024/03/19 06:38:02;;;;;;;10.77;7.23;;;;;;;2.13;85.21;101021.69;5049932;28;20209;-68
2024/03/19 06:40:30;;;;;;;10.53;7.83;;;;;;;2.17;84.40;101018.47;5057748;28;20610;-69
2024/03/19 06:42:58;;;;;;;11.93;7.43;;;;;;;2.24;85.20;101014.47;5058502;28;20587;-69
2024/03/19 06:45:26;;;;;;;12.83;8.20;;;;;;;2.36;84.97;101009.88;5052324;28;20228;-69
2024/03/19 06:47:53;;;;;;;11.73;8.23;;;;;;;2.51;85.08;101015.53;5056750;28;20209;-70
2024/03/19 06:50:22;;;;;;;10.03;7.43;;;;;;;2.76;85.26;101011.28;5059386;28;20622;-71
2024/03/19 06:52:50;;;;;;;11.87;8.07;;;;;;;3.20;85.83;101012.81;5058681;28;20607;-70
2024/03/19 06:55:19;;;;;;;9.93;7.43;;;;;;;3.79;85.35;101006.28;5056580;28;20548;-71
2024/03/19 06:57:47;;;;;;;10.13;7.03;;;;;;;4.46;83.79;101004.03;5069033;28;20233;-71
2024/03/19 07:00:18;;;;;;;10.27;7.97;;;;;;;5.01;81.27;101008.97;5070543;28;20215;-72
2024/03/19 07:02:49;;;;;;;11.30;7.77;;;;;;;5.50;78.70;101007.66;5070128;28;20243;-69
2024/03/19 07:05:16;;;;;;;10.33;7.10;;;;;;;6.14;77.72;101015.97;5070117;28;20221;-70
2024/03/19 07:07:45;;;;;;;9.40;7.60;;;;;;;6.84;75.95;101003.75;5087554;28;20672;-67
2024/03/19 07:10:12;;;;;;;10.40;7.27;;;;;;;7.65;71.36;101005.16;5070208;28;20220;-66
2024/03/19 07:12:40;;;;;;;8.40;6.70;;;;;;;8.56;61.17;101011.59;5061091;28;20215;-67
2024/03/19 07:15:10;;;;;;;9.10;6.43;;;;;;;9.23;58.46;101011.47;5072436;28;20209;-72
2024/03/19 07:17:40;;;;;;;8.67;6.87;;;;;;;9.84;54.91;101006.84;5072191;28;20578;-71
2024/03/19 07:20:12;;;;;;;10.47;6.70;;;;;;;10.15;51.92;101005.28;5072518;28;20201;-72
2024/03/19 07:22:40;;;;;;;8.07;6.13;;;;;;;10.56;53.46;101013.25;5070663;28;22788;-66
2024/03/19 07:25:08;;;;;;;9.07;6.70;;;;;;;10.98;52.39;101009.09;5070294;28;20259;-66
2024/03/19 07:27:39;;;;;;;8.37;6.57;;;;;;;11.41;49.75;101009.13;5070761;28;20217;-68
2024/03/19 07:30:08;;;;;;;9.10;6.37;;;;;;;11.89;49.99;101012.59;5070558;28;20209;-68
2024/03/19 07:32:35;;;;;;;7.10;5.90;;;;;;;12.55;49.86;101015.84;5070488;28;20220;-69
2024/03/19 07:35:04;;;;;;;6.40;5.40;;;;;;;12.52;45.67;101023.66;5071508;28;20672;-71
2024/03/19 07:37:31;;;;;;;6.83;5.80;;;;;;;12.23;43.77;101022.88;5072064;28;20219;-70
2024/03/19 07:39:58;;;;;;;6.20;5.30;;;;;;;12.05;45.00;101028.94;5071638;28;20212;-69
2024/03/19 07:42:25;;;;;;;6.07;5.43;;;;;;;12.05;46.21;101029.81;5070717;28;20217;-71
2024/03/19 07:44:52;;;;;;;6.73;5.90;;;;;;;12.36;45.77;101021.09;5068786;28;20231;-72
2024/03/19 07:47:19;;;;;;;7.78;5.57;;;;;;;13.37;45.84;101024.06;5070448;28;20317;-72
2024/03/19 07:49:46;;;;;;;6.70;5.47;;;;;;;14.47;43.45;101012.63;5070002;28;20576;-72
2024/03/19 07:52:15;;;;;;;5.78;4.90;;;;;;;15.52;40.56;101008.56;5071055;28;20209;-71
2024/03/19 07:54:45;;;;;;;6.88;5.65;;;;;;;16.52;35.44;101002.41;5069598;28;20205;-70
2024/03/19 07:57:12;;;;;;;5.80;5.13;;;;;;;16.63;36.52;101016.91;5061207;28;20240;-71
2024/03/19 07:59:39;;;;;;;6.20;5.55;;;;;;;17.47;36.09;101013.31;5053842;28;20205;-72
2024/03/19 08:02:06;;;;;;;6.38;5.05;;;;;;;18.17;33.61;101000.22;5054195;28;20598;-68
2024/03/19 08:04:33;;;;;;;5.25;4.75;;;;;;;17.14;33.03;101015.81;5059401;28;20252;-66
2024/03/19 08:07:00;;;;;;;5.80;5.20;;;;;;;15.69;35.40;101017.84;5061071;28;20209;-68
2024/03/19 08:09:28;;;;;;;6.28;5.57;;;;;;;15.04;36.17;101029.22;5057139;28;20259;-65
2024/03/19 08:11:54;;;;;;;6.75;5.47;;;;;;;14.53;37.42;101029.00;5053925;28;20217;-65
2024/03/19 08:14:21;;;;;;;6.50;5.80;;;;;;;13.58;38.58;101035.09;5059184;28;20267;-67
2024/03/19 08:16:48;;;;;;;7.20;6.03;;;;;;;12.73;40.84;101034.75;5057614;28;20209;-66
2024/03/19 08:19:15;;;;;;;6.85;5.13;;;;;;;12.36;43.76;101040.06;5071265;28;20205;-65
2024/03/19 08:21:42;;;;;;;7.23;5.70;;;;;;;12.53;42.36;101040.00;5058459;28;20209;-67
2024/03/19 08:24:10;;;;;;;8.43;6.30;;;;;;;12.22;42.70;101044.41;5059882;28;20583;-68
2024/03/19 08:26:39;;;;;;;7.00;5.77;;;;;;;10.96;44.86;101044.31;5059005;28;20209;-65
2024/03/19 08:29:06;;;;;;;7.50;6.10;;;;;;;9.74;48.39;101041.91;5059085;28;20631;-66
2024/03/19 08:31:33;;;;;;;7.13;5.80;;;;;;;8.55;53.05;101051.84;5062092;28;20275;-67
2024/03/19 08:34:00;;;;;;;6.43;5.63;;;;;;;8.08;53.56;101052.00;5053822;28;20212;-64
2024/03/19 08:36:27;;;;;;;6.73;5.30;;;;;;;7.80;55.38;101057.56;5059279;28;20586;-65
2024/03/19 08:38:54;;;;;;;5.77;4.90;;;;;;;7.60;56.09;101060.66;5051765;28;20210;-71
2024/03/19 08:41:21;;;;;;;7.00;5.60;;;;;;;7.48;56.75;101061.31;5053071;28;20213;-66
2024/03/19 08:43:51;;;;;;;6.90;5.27;;;;;;;7.37;56.26;101061.97;5056031;28;20206;-66
2024/03/19 08:46:19;;;;;;;6.30;4.97;;;;;;;7.17;57.51;101062.44;5053492;28;20213;-71
2024/03/19 08:48:47;;;;;;;7.50;5.50;;;;;;;6.88;58.27;101071.28;5053201;28;20937;-64
2024/03/19 08:51:14;;;;;;;5.03;4.53;;;;;;;6.54;59.28;101061.22;5053554;28;20580;-65
2024/03/19 08:53:41;;;;;;;6.07;5.00;;;;;;;6.50;59.20;101068.81;5060625;28;20213;-66
2024/03/19 08:56:08;;;;;;;6.43;5.10;;;;;;;6.73;60.72;101064.16;5055550;28;20610;-64
2024/03/19 08:58:37;;;;;;;4.93;4.30;;;;;;;7.11;59.51;101057.22;5072864;28;20294;-65
2024/03/19 09:01:05;;;;;;;4.67;4.13;;;;;;;7.60;57.64;101057.25;5076275;28;20204;-66
2024/03/19 09:03:33;;;;;;;5.60;4.57;;;;;;;7.67;54.22;101064.19;5075246;28;20712;-64
2024/03/19 09:06:01;;;;;;;5.67;4.70;;;;;;;7.44;56.10;101063.81;5074039;28;20555;-65
2024/03/19 09:08:28;;;;;;;5.17;4.33;;;;;;;7.24;56.51;101066.00;5076122;28;20204;-66
2024/03/19 09:10:55;;;;;;;4.73;4.23;;;;;;;7.03;57.46;101063.88;5075388;28;20574;-67
2024/03/19 09:13:24;;;;;;;5.43;3.90;;;;;;;6.91;58.03;101072.22;5074360;28;20211;-66
2024/03/19 09:15:51;;;;;;;5.40;4.30;;;;;;;6.82;58.59;101066.91;5072908;28;20204;-66
2024/03/19 09:18:20;;;;;;;6.40;4.63;;;;;;;6.46;59.83;101067.88;5071118;28;20204;-67
2024/03/19 09:20:47;;;;;;;5.20;4.17;;;;;;;6.17;60.54;101071.47;5077473;28;20213;-65
2024/03/19 09:23:15;;;;;;;5.60;4.53;;;;;;;6.11;61.24;101076.44;5074306;28;20216;-67
2024/03/19 09:25:42;;;;;;;5.80;4.40;;;;;;;6.29;61.60;101072.59;5071820;28;20232;-69
2024/03/19 09:28:09;;;;;;;5.50;4.60;;;;;;;6.47;60.96;101071.28;5081899;28;20208;-67
2024/03/19 09:30:37;;;;;;;4.80;4.00;;;;;;;6.56;59.56;101081.75;5077578;28;20223;-71
2024/03/19 09:33:04;;;;;;;5.07;4.00;;;;;;;6.62;59.50;101069.03;5078296;28;20204;-70
2024/03/19 09:35:34;;;;;;;5.60;4.70;;;;;;;6.66;59.65;101069.97;5076559;28;20652;-69
2024/03/19 09:38:01;;;;;;;5.90;4.53;;;;;;;6.41;59.88;101076.28;5078275;28;20204;-70
2024/03/19 09:40:28;;;;;;;4.80;4.27;;;;;;;6.12;60.30;101080.75;5074073;28;20212;-68
2024/03/19 09:42:56;;;;;;;5.73;4.53;;;;;;;6.08;60.85;101079.81;5075219;28;20711;-69
2024/03/19 09:45:27;;;;;;;6.07;4.73;;;;;;;6.01;60.28;101073.69;5075124;28;20701;-68
2024/03/19 09:47:56;;;;;;;6.20;4.23;;;;;;;6.12;61.57;101076.50;5074811;28;20579;-69
2024/03/19 09:50:25;;;;;;;6.27;4.60;;;;;;;6.27;60.72;101071.72;5083039;28;20269;-70
2024/03/19 09:52:55;;;;;;;5.67;4.27;;;;;;;6.24;60.74;101071.66;5076061;28;20208;-70
2024/03/19 09:55:25;;;;;;;6.20;4.50;;;;;;;6.17;60.76;101064.66;5069754;28;20205;-69
2024/03/19 09:57:55;;;;;;;6.87;4.47;;;;;;;6.53;60.05;101063.75;5069258;28;20244;-68
2024/03/19 10:00:26;;;;;;;5.80;4.03;;;;;;;6.90;60.25;101072.19;5064495;28;20205;-70
2024/03/19 10:02:54;;;;;;;4.30;3.77;;;;;;;7.35;58.96;101061.06;5069402;28;20205;-69
2024/03/19 10:05:22;;;;;;;5.13;4.17;;;;;;;7.74;57.11;101059.19;5060865;28;20338;-65
2024/03/19 10:07:51;;;;;;;4.40;3.90;;;;;;;8.07;55.81;101052.84;5066840;28;20549;-67
2024/03/19 10:10:19;;;;;;;6.23;4.23;;;;;;;8.20;53.22;101054.75;5070253;28;20215;-66
2024/03/19 10:12:46;;;;;;;4.83;3.97;;;;;;;7.97;53.77;101048.41;5068735;28;20723;-69
2024/03/19 10:15:19;;;;;;;5.23;4.27;;;;;;;7.71;54.30;101051.44;5068905;28;20212;-71
2024/03/19 10:17:47;;;;;;;4.77;4.27;;;;;;;7.40;56.24;101059.44;5068887;28;20209;-70
2024/03/19 10:20:14;;;;;;;6.60;4.50;;;;;;;7.18;55.54;101055.63;5070166;28;20220;-68
2024/03/19 10:22:42;;;;;;;7.30;3.97;;;;;;;7.35;56.72;101050.81;5069574;28;20212;-67
2024/03/19 10:25:12;;;;;;;4.50;4.00;;;;;;;7.73;56.15;101047.22;5068412;28;20229;-67
2024/03/19 10:27:43;;;;;;;5.47;4.10;;;;;;;7.86;53.90;101053.38;5067563;28;20575;-66
2024/03/19 10:30:13;;;;;;;5.17;4.30;;;;;;;7.87;54.74;101042.28;5069086;28;20679;-68
2024/03/19 10:32:41;;;;;;;8.47;5.10;;;;;;;7.91;55.27;101041.47;5068207;28;20232;-68
2024/03/19 10:35:18;;;;;;;4.67;3.90;;;;;;;8.18;54.15;101046.19;5068630;28;20205;-68
2024/03/19 10:37:46;;;;;;;6.70;4.40;;;;;;;8.14;53.96;101039.28;5070453;28;20213;-68
2024/03/19 10:40:15;;;;;;;5.37;4.60;;;;;;;8.22;54.38;101050.50;5073538;28;20204;-66
2024/03/19 10:42:45;;;;;;;7.13;5.70;;;;;;;8.33;54.00;101054.94;5072328;28;20209;-63
2024/03/19 10:45:19;;;;;;;4.70;4.10;;;;;;;8.42;51.94;101044.81;5073243;28;20217;-71
2024/03/19 10:47:47;;;;;;;6.43;4.33;;;;;;;8.57;52.48;101045.00;5073086;28;20695;-66
2024/03/19 10:50:15;;;;;;;5.67;4.80;;;;;;;8.88;53.55;101045.41;5070601;28;20214;-66
2024/03/19 10:52:48;;;;;;;4.47;3.67;;;;;;;9.16;53.06;101047.41;5072168;28;20220;-65
2024/03/19 10:55:16;;;;;;;4.97;4.00;;;;;;;9.35;51.72;101038.19;5071557;28;20613;-68
2024/03/19 10:57:46;;;;;;;6.43;4.00;;;;;;;9.43;50.41;101040.81;5076658;28;20240;-66
2024/03/19 11:00:23;;;;;;;6.73;4.30;;;;;;;9.21;50.11;101041.47;5077101;28;20208;-64
2024/03/19 11:02:52;;;;;;;4.63;4.00;;;;;;;8.99;51.31;101033.53;5073415;28;20209;-66
2024/03/19 11:05:20;;;;;;;5.33;3.93;;;;;;;8.93;51.46;101036.00;5064653;28;20228;-64
2024/03/19 11:07:49;;;;;;;5.00;3.87;;;;;;;8.68;51.42;101034.88;5080957;28;20212;-63
2024/03/19 11:10:29;;;;;;;5.87;4.00;;;;;;;8.38;52.91;101041.34;5076277;28;20209;-64
2024/03/19 11:12:58;;;;;;;5.60;4.20;;;;;;;8.30;53.25;101035.22;5075705;28;20196;-67
2024/03/19 11:15:25;;;;;;;5.63;3.90;;;;;;;8.13;53.93;101042.66;5081945;28;20204;-64
2024/03/19 11:17:52;;;;;;;5.00;4.37;;;;;;;8.00;54.06;101035.63;5076309;28;20277;-63
2024/03/19 11:20:19;;;;;;;6.70;4.67;;;;;;;7.72;54.72;101042.03;5075370;28;20224;-64
2024/03/19 11:22:47;;;;;;;6.20;4.53;;;;;;;7.45;55.83;101039.88;5079084;28;20859;-64
2024/03/19 11:25:15;;;;;;;5.23;4.63;;;;;;;7.69;56.47;101039.41;5078669;28;20235;-63
2024/03/19 11:27:48;;;;;;;6.00;4.70;;;;;;;7.98;55.06;101030.47;5082729;28;20211;-64
2024/03/19 11:30:18;;;;;;;6.87;5.00;;;;;;;8.04;55.84;101037.41;5075226;28;20254;-63